createdAt,value
2023-03-01T00:00:58.202Z,25.12
2023-03-01T00:01:58.211Z,25.13
2023-03-01T00:02:58.305Z,25.15
2023-03-01T00:03:58.300Z,25.12
2023-03-01T00:04:58.363Z,25.15
2023-03-01T00:05:58.424Z,25.15
2023-03-01T00:06:58.485Z,25.15
2023-03-01T00:07:58.524Z,25.13
2023-03-01T00:08:58.576Z,25.13
2023-03-01T00:09:58.647Z,25.13
2023-03-01T00:10:58.735Z,25.13
2023-03-01T00:11:58.750Z,25.15
2023-03-01T00:12:58.829Z,25.15
2023-03-01T00:13:58.868Z,25.15
2023-03-01T00:14:58.949Z,25.13
2023-03-01T00:15:58.992Z,25.13
2023-03-01T00:16:59.084Z,25.13
2023-03-01T00:17:59.071Z,25.15
2023-03-01T00:18:59.108Z,25.16
2023-03-01T01:48:03.957Z,25.18
2023-03-01T01:49:04.022Z,25.19
2023-03-01T01:50:04.076Z,25.18
2023-03-01T01:51:04.110Z,25.16
2023-03-01T01:52:04.233Z,25.15
2023-03-01T01:53:04.247Z,25.18
2023-03-01T01:54:04.311Z,25.16
2023-03-01T01:55:04.342Z,25.19
2023-03-01T01:56:04.392Z,25.18
2023-03-01T01:57:04.472Z,25.19
2023-03-01T01:58:04.518Z,25.18
2023-03-01T01:59:04.551Z,25.16
2023-03-01T02:00:04.626Z,25.13
2023-03-01T02:01:04.709Z,25.15
2023-03-01T02:02:04.716Z,25.18
2023-03-01T02:03:04.853Z,25.18
2023-03-01T02:04:04.835Z,25.16
2023-03-01T02:05:04.913Z,25.15
2023-03-01T02:06:04.982Z,25.15
2023-03-01T02:07:04.994Z,25.18
2023-03-01T02:08:05.069Z,25.21
2023-03-01T02:09:05.104Z,25.16
2023-03-01T02:10:05.152Z,25.22
2023-03-01T02:11:05.219Z,25.21
2023-03-01T02:12:05.225Z,25.22
2023-03-01T02:13:05.260Z,25.23
2023-03-01T02:14:05.317Z,25.25
2023-03-01T02:15:05.352Z,25.26
2023-03-01T02:16:05.444Z,25.29
2023-03-01T02:17:05.427Z,25.29
2023-03-01T02:18:05.444Z,25.29
2023-03-01T02:19:05.475Z,25.33
2023-03-01T02:20:05.541Z,25.33
2023-03-01T02:21:05.548Z,25.36
2023-03-01T02:22:05.638Z,25.36
2023-03-01T02:23:05.619Z,25.37
2023-03-01T02:24:05.643Z,25.39
2023-03-01T02:25:05.650Z,25.39
2023-03-01T02:26:05.694Z,25.39
2023-03-01T02:27:05.715Z,25.39
2023-03-01T02:28:05.778Z,25.43
2023-03-01T02:29:05.773Z,25.42
2023-03-01T02:30:05.757Z,25.43
2023-03-01T02:31:05.954Z,25.42
2023-03-01T02:32:05.909Z,25.43
2023-03-01T02:33:05.905Z,25.45
2023-03-01T02:34:05.986Z,25.43
2023-03-01T02:35:06.085Z,25.46
2023-03-01T02:36:06.152Z,25.47
2023-03-01T02:37:06.222Z,25.50
2023-03-01T02:38:06.263Z,25.49
2023-03-01T02:39:06.348Z,25.52
2023-03-01T02:40:06.452Z,25.53
2023-03-01T02:41:06.527Z,25.53
2023-03-01T02:42:06.574Z,25.52
2023-03-01T02:43:06.626Z,25.54
2023-03-01T02:44:06.721Z,25.54
2023-03-01T02:45:06.758Z,25.57
2023-03-01T02:46:06.917Z,25.57
2023-03-01T02:47:06.913Z,25.56
2023-03-01T02:48:06.950Z,25.54
2023-03-01T02:49:07.033Z,25.53
2023-03-01T02:50:07.046Z,25.57
2023-03-01T02:51:07.180Z,25.57
2023-03-01T02:52:07.166Z,25.59
2023-03-01T02:53:07.232Z,25.59
2023-03-01T02:54:07.253Z,25.59
2023-03-01T02:55:07.309Z,25.59
2023-03-01T02:56:07.367Z,25.62
2023-03-01T02:57:07.408Z,25.62
2023-03-01T02:58:07.463Z,25.63
2023-03-01T02:59:07.531Z,25.60
2023-03-01T03:00:07.591Z,25.63
2023-03-01T03:01:07.637Z,25.65
2023-03-01T03:02:07.642Z,25.66
2023-03-01T03:03:07.676Z,25.63
2023-03-01T03:04:07.758Z,25.66
2023-03-01T03:05:07.740Z,25.65
2023-03-01T03:06:07.846Z,25.67
2023-03-01T03:07:07.870Z,25.69
2023-03-01T03:08:07.902Z,25.67
2023-03-01T03:09:07.911Z,25.69
2023-03-01T03:10:07.948Z,25.69
2023-03-01T03:11:08.013Z,25.69
2023-03-01T03:12:08.016Z,25.72
2023-03-01T03:13:08.070Z,25.73
2023-03-01T03:14:08.073Z,25.73
2023-03-01T03:15:08.126Z,25.74
2023-03-01T03:16:08.340Z,25.73
2023-03-01T03:17:08.185Z,25.73
2023-03-01T03:18:08.207Z,25.70
2023-03-01T03:19:08.192Z,25.70
2023-03-01T03:20:08.221Z,25.74
2023-03-01T03:21:08.290Z,25.77
2023-03-01T03:22:08.310Z,25.79
2023-03-01T03:23:08.324Z,25.77
2023-03-01T03:24:08.349Z,25.76
2023-03-01T03:25:08.405Z,25.73
2023-03-01T03:26:08.407Z,25.76
2023-03-01T03:27:08.418Z,25.76
2023-03-01T03:28:08.448Z,25.74
2023-03-01T03:29:08.466Z,25.74
2023-03-01T03:30:08.478Z,25.72
2023-03-01T03:31:08.526Z,25.72
2023-03-01T03:32:08.535Z,25.73
2023-03-01T03:33:08.514Z,25.73
2023-03-01T03:34:08.516Z,25.76
2023-03-01T03:35:08.519Z,25.76
2023-03-01T03:36:08.660Z,25.79
2023-03-01T03:37:08.559Z,25.77
2023-03-01T03:38:08.563Z,25.76
2023-03-01T03:39:08.556Z,25.77
2023-03-01T03:40:08.555Z,25.79
2023-03-01T03:41:08.602Z,25.79
2023-03-01T03:42:08.606Z,25.79
2023-03-01T03:43:08.608Z,25.79
2023-03-01T03:44:08.585Z,25.79
2023-03-01T03:45:08.608Z,25.83
2023-03-01T03:46:08.773Z,25.81
2023-03-01T03:47:08.642Z,25.81
2023-03-01T03:48:08.643Z,25.76
2023-03-01T03:49:08.656Z,25.76
2023-03-01T03:50:08.625Z,25.79
2023-03-01T03:51:08.667Z,25.80
2023-03-01T03:52:08.636Z,25.80
2023-03-01T03:53:08.650Z,25.83
2023-03-01T03:54:08.651Z,25.86
2023-03-01T03:55:08.671Z,25.84
2023-03-01T03:56:08.674Z,25.83
2023-03-01T03:57:08.722Z,25.84
2023-03-01T03:58:08.719Z,25.83
2023-03-01T03:59:08.694Z,25.80
2023-03-01T04:00:08.688Z,25.83
2023-03-01T04:01:08.741Z,25.88
2023-03-01T04:02:08.746Z,25.90
2023-03-01T04:03:08.718Z,25.90
2023-03-01T04:04:08.765Z,25.93
2023-03-01T04:05:08.762Z,25.93
2023-03-01T04:06:08.785Z,25.90
2023-03-01T04:07:08.743Z,25.91
2023-03-01T04:08:08.754Z,25.90
2023-03-01T04:09:08.730Z,25.90
2023-03-01T04:10:08.739Z,25.90
2023-03-01T04:11:08.732Z,25.94
2023-03-01T04:12:08.766Z,25.94
2023-03-01T04:13:08.736Z,25.94
2023-03-01T04:14:08.730Z,25.97
2023-03-01T04:15:08.741Z,25.94
2023-03-01T04:16:08.779Z,25.94
2023-03-01T04:17:08.754Z,25.96
2023-03-01T04:18:09.435Z,25.94
2023-03-01T04:19:08.750Z,25.96
2023-03-01T04:20:08.739Z,25.97
2023-03-01T04:21:08.773Z,25.98
2023-03-01T04:22:08.749Z,25.97
2023-03-01T04:23:08.760Z,25.96
2023-03-01T04:24:08.761Z,25.96
2023-03-01T04:25:08.833Z,25.96
2023-03-01T04:26:08.881Z,25.96
2023-03-01T04:27:08.948Z,25.94
2023-03-01T04:28:08.972Z,25.94
2023-03-01T04:29:08.978Z,25.91
2023-03-01T04:30:08.990Z,25.93
2023-03-01T04:31:09.005Z,25.93
2023-03-01T04:32:09.128Z,25.94
2023-03-01T04:33:09.065Z,25.93
2023-03-01T04:34:09.093Z,25.94
2023-03-01T04:35:09.132Z,25.94
2023-03-01T04:36:09.251Z,25.96
2023-03-01T04:37:09.234Z,25.94
2023-03-01T04:38:09.231Z,25.93
2023-03-01T04:39:09.200Z,25.97
2023-03-01T04:40:09.229Z,25.97
2023-03-01T04:41:09.233Z,25.96
2023-03-01T04:42:09.191Z,25.94
2023-03-01T04:43:09.184Z,25.93
2023-03-01T04:44:09.216Z,25.97
2023-03-01T04:45:09.219Z,25.96
2023-03-01T04:46:09.272Z,25.97
2023-03-01T04:47:09.217Z,25.98
2023-03-01T04:48:09.205Z,25.98
2023-03-01T04:49:09.214Z,26.00
2023-03-01T04:50:09.201Z,26.00
2023-03-01T04:51:09.290Z,26.01
2023-03-01T04:52:09.186Z,26.01
2023-03-01T04:53:09.248Z,26.05
2023-03-01T04:54:09.211Z,26.01
2023-03-01T04:55:09.233Z,26.01
2023-03-01T04:56:09.243Z,26.03
2023-03-01T04:57:09.236Z,26.03
2023-03-01T04:58:09.248Z,26.04
2023-03-01T04:59:09.250Z,26.04
2023-03-01T05:00:09.298Z,26.05
2023-03-01T05:01:09.311Z,26.07
2023-03-01T05:02:09.306Z,26.09
2023-03-01T05:03:09.316Z,26.09
2023-03-01T05:04:09.400Z,26.09
2023-03-01T05:05:09.334Z,26.08
2023-03-01T05:06:09.400Z,26.09
2023-03-01T05:07:09.420Z,26.08
2023-03-01T05:08:09.442Z,26.08
2023-03-01T05:09:09.420Z,26.07
2023-03-01T05:10:09.446Z,26.08
2023-03-01T05:11:09.510Z,26.08
2023-03-01T05:12:09.488Z,26.09
2023-03-01T05:13:09.513Z,26.08
2023-03-01T05:14:09.522Z,26.11
2023-03-01T05:15:09.560Z,26.09
2023-03-01T05:16:09.729Z,26.11
2023-03-01T05:17:09.620Z,26.09
2023-03-01T05:18:09.617Z,26.09
2023-03-01T05:19:09.662Z,26.14
2023-03-01T05:20:09.691Z,26.16
2023-03-01T05:21:09.714Z,26.16
2023-03-01T05:22:09.739Z,26.14
2023-03-01T05:23:09.756Z,26.11
2023-03-01T05:24:09.778Z,26.13
2023-03-01T05:25:09.827Z,26.14
2023-03-01T05:26:25.931Z,26.14
2023-03-01T05:27:10.878Z,26.11
2023-03-01T05:28:09.873Z,26.13
2023-03-01T05:29:09.861Z,26.09
2023-03-01T05:30:09.859Z,26.08
2023-03-01T05:31:09.872Z,26.05
2023-03-01T05:32:09.958Z,26.07
2023-03-01T05:33:09.840Z,26.05
2023-03-01T05:34:09.834Z,26.07
2023-03-01T05:35:09.825Z,26.05
2023-03-01T05:36:09.849Z,26.05
2023-03-01T05:37:09.807Z,26.04
2023-03-01T05:38:09.813Z,26.07
2023-03-01T05:39:09.812Z,26.08
2023-03-01T05:40:09.830Z,26.08
2023-03-01T05:41:09.839Z,26.09
2023-03-01T05:42:09.844Z,26.13
2023-03-01T05:43:09.894Z,26.11
2023-03-01T05:44:09.911Z,26.09
2023-03-01T05:45:09.943Z,26.07
2023-03-01T05:46:10.024Z,26.07
2023-03-01T05:47:10.032Z,26.08
2023-03-01T05:48:10.069Z,26.11
2023-03-01T05:49:10.111Z,26.07
2023-03-01T05:50:10.131Z,26.07
2023-03-01T05:51:10.193Z,26.07
2023-03-01T05:52:10.230Z,26.08
2023-03-01T05:53:10.283Z,26.04
2023-03-01T05:54:10.308Z,26.04
2023-03-01T05:55:10.364Z,26.05
2023-03-01T05:56:10.384Z,26.03
2023-03-01T05:57:10.407Z,26.05
2023-03-01T05:58:10.485Z,26.05
2023-03-01T06:01:17.632Z,26.08
2023-03-01T06:53:11.568Z,26.44
2023-03-01T06:54:11.368Z,26.44
2023-03-01T06:55:11.385Z,26.48
2023-03-01T06:56:11.355Z,26.49
2023-03-01T06:57:11.333Z,26.55
2023-03-01T06:58:11.343Z,26.59
2023-03-01T06:59:11.297Z,26.63
2023-03-01T07:00:11.306Z,26.69
2023-03-01T07:01:11.285Z,26.72
2023-03-01T07:02:11.290Z,26.77
2023-03-01T07:03:11.296Z,26.83
2023-03-01T08:04:12.517Z,26.42
2023-03-01T08:23:13.565Z,26.81
2023-03-01T08:28:13.584Z,26.77
2023-03-01T08:33:13.641Z,26.75
2023-03-01T08:38:13.601Z,26.65
2023-03-01T08:39:13.425Z,26.67
2023-03-01T08:40:13.412Z,26.61
2023-03-01T08:41:13.492Z,26.58
2023-03-01T08:42:13.496Z,26.59
2023-03-01T08:43:13.604Z,26.67
2023-03-01T08:44:13.544Z,26.68
2023-03-01T08:45:13.616Z,26.77
2023-03-01T08:46:13.670Z,26.81
2023-03-01T08:47:13.629Z,26.83
2023-03-01T08:48:13.689Z,26.85
2023-03-01T08:49:13.655Z,26.96
2023-03-01T08:50:13.698Z,27.00
2023-03-01T08:51:13.792Z,27.12
2023-03-01T08:52:13.817Z,27.20
2023-03-01T08:53:13.829Z,27.23
2023-03-01T08:54:13.981Z,27.30
2023-03-01T08:55:13.935Z,27.36
2023-03-01T08:56:13.972Z,27.42
2023-03-01T08:57:14.059Z,27.44
2023-03-01T08:58:14.109Z,27.49
2023-03-01T08:59:14.144Z,27.56
2023-03-01T09:00:14.179Z,27.58
2023-03-01T09:01:14.191Z,27.61
2023-03-01T09:02:14.270Z,27.65
2023-03-01T09:03:14.303Z,27.65
2023-03-01T09:04:14.315Z,27.70
2023-03-01T09:05:14.332Z,27.74
2023-03-01T09:44:14.629Z,28.28
2023-03-01T10:28:16.282Z,26.35
2023-03-01T10:29:16.329Z,26.35
2023-03-01T10:30:16.336Z,26.38
2023-03-01T10:31:16.439Z,26.38
2023-03-01T10:32:16.514Z,26.38
2023-03-01T10:33:16.571Z,26.39
2023-03-01T10:34:16.687Z,26.34
2023-03-01T10:35:16.657Z,26.35
2023-03-01T10:36:16.682Z,26.35
2023-03-01T10:37:16.766Z,26.39
2023-03-01T10:38:16.859Z,26.41
2023-03-01T10:39:16.972Z,26.42
2023-03-01T10:40:17.129Z,26.44
2023-03-01T10:41:17.079Z,26.47
2023-03-01T10:42:17.134Z,26.49
2023-03-01T10:43:17.214Z,26.54
2023-03-01T10:44:17.210Z,26.56
2023-03-01T10:45:17.259Z,26.58
2023-03-01T10:46:17.308Z,26.62
2023-03-01T10:47:17.384Z,26.62
2023-03-01T10:48:17.450Z,26.65
2023-03-01T10:49:17.697Z,26.62
2023-03-01T10:50:17.554Z,26.62
2023-03-01T10:51:17.535Z,26.65
2023-03-01T10:52:17.614Z,26.67
2023-03-01T10:53:17.683Z,26.61
2023-03-01T10:54:18.186Z,26.62
2023-03-01T10:55:17.807Z,26.58
2023-03-01T10:56:17.915Z,26.56
2023-03-01T10:57:17.914Z,26.59
2023-03-01T10:58:17.967Z,26.62
2023-03-01T10:59:18.175Z,26.65
2023-03-01T11:00:18.102Z,26.65
2023-03-01T11:01:18.170Z,26.71
2023-03-01T11:02:24.881Z,26.77
2023-03-01T11:03:21.242Z,26.75
2023-03-01T11:04:18.190Z,26.77
2023-03-01T11:05:18.145Z,26.79
2023-03-01T11:06:18.142Z,26.81
2023-03-01T11:07:18.155Z,26.82
2023-03-01T11:08:18.171Z,26.83
2023-03-01T11:09:18.682Z,26.86
2023-03-01T11:10:18.195Z,26.89
2023-03-01T11:11:18.173Z,26.95
2023-03-01T11:12:18.159Z,26.95
2023-03-01T11:13:18.166Z,26.96
2023-03-01T11:14:26.335Z,26.99
2023-03-01T11:15:19.177Z,27.00
2023-03-01T11:16:18.192Z,27.03
2023-03-01T11:17:18.165Z,27.06
2023-03-01T11:18:18.199Z,27.06
2023-03-01T11:19:18.177Z,27.09
2023-03-01T11:20:18.151Z,27.10
2023-03-01T11:21:18.160Z,27.12
2023-03-01T11:22:18.161Z,27.16
2023-03-01T11:23:18.139Z,27.17
2023-03-01T11:24:18.139Z,27.16
2023-03-01T11:26:18.178Z,27.16
2023-03-01T11:27:18.163Z,27.14
2023-03-01T11:28:18.144Z,27.10
2023-03-01T11:29:18.143Z,27.10
2023-03-01T11:31:18.201Z,27.10
2023-03-01T11:32:18.396Z,27.10
2023-03-01T11:33:18.186Z,27.09
2023-03-01T11:34:18.217Z,27.13
2023-03-01T12:06:19.918Z,27.51
2023-03-01T12:07:19.970Z,27.49
2023-03-01T12:09:20.096Z,27.47
2023-03-01T12:10:20.176Z,27.43
2023-03-01T12:11:20.209Z,27.40
2023-03-01T12:12:20.281Z,27.37
2023-03-01T12:13:20.367Z,27.32
2023-03-01T12:14:20.328Z,27.26
2023-03-01T12:15:20.354Z,27.25
2023-03-01T12:16:32.366Z,27.22
2023-03-01T12:17:21.407Z,27.20
2023-03-01T12:18:20.373Z,27.19
2023-03-01T12:19:20.360Z,27.17
2023-03-01T12:20:20.848Z,27.17
2023-03-01T12:21:20.336Z,27.17
2023-03-01T12:22:20.343Z,27.14
2023-03-01T12:23:21.232Z,27.17
2023-03-01T12:24:20.368Z,27.20
2023-03-01T12:25:20.404Z,27.23
2023-03-01T12:26:20.410Z,27.19
2023-03-01T12:27:20.365Z,27.17
2023-03-01T12:28:20.377Z,27.16
2023-03-01T12:29:20.354Z,27.17
2023-03-01T12:31:20.410Z,27.23
2023-03-01T12:32:20.514Z,27.25
2023-03-01T12:34:20.462Z,27.30
2023-03-01T14:49:26.449Z,27.13
2023-03-01T14:50:26.372Z,27.10
2023-03-01T14:51:26.341Z,27.12
2023-03-01T15:00:26.295Z,27.06
2023-03-01T15:01:26.339Z,27.05
2023-03-01T15:02:26.304Z,27.06
2023-03-01T15:03:26.321Z,27.03
2023-03-01T15:04:26.359Z,27.05
2023-03-01T15:05:26.298Z,27.05
2023-03-01T15:06:26.283Z,27.05
2023-03-01T15:15:26.311Z,27.00
2023-03-01T15:16:26.389Z,27.02
2023-03-01T15:17:26.821Z,27.06
2023-03-01T15:18:26.304Z,27.03
2023-03-01T15:19:26.290Z,27.02
2023-03-01T15:20:26.354Z,27.02
2023-03-01T15:21:26.385Z,27.00
2023-03-01T15:22:26.774Z,27.02
2023-03-01T15:23:26.455Z,26.99
2023-03-01T15:24:26.444Z,27.02
2023-03-01T15:25:27.470Z,26.96
2023-03-01T15:26:26.493Z,26.98
2023-03-01T15:27:26.516Z,26.96
2023-03-01T15:28:26.466Z,26.95
2023-03-01T15:29:26.471Z,26.93
2023-03-01T15:30:26.484Z,26.95
2023-03-01T15:31:26.552Z,26.96
2023-03-01T15:32:26.603Z,26.95
2023-03-01T15:33:26.507Z,26.95
2023-03-01T15:35:26.485Z,26.95
2023-03-01T15:36:26.430Z,26.95
2023-03-01T15:37:26.462Z,26.93
2023-03-01T15:38:26.453Z,26.96
2023-03-01T15:39:26.407Z,26.95
2023-03-01T15:40:26.393Z,26.95
2023-03-01T15:41:26.468Z,26.93
2023-03-01T15:42:26.435Z,26.93
2023-03-01T15:43:26.619Z,26.93
2023-03-01T15:44:30.015Z,26.92
2023-03-01T15:45:27.685Z,26.92
2023-03-01T15:46:26.720Z,26.90
2023-03-01T15:47:26.502Z,26.89
2023-03-01T15:48:26.428Z,26.90
2023-03-01T15:49:26.460Z,26.89
2023-03-01T15:50:26.485Z,26.89
2023-03-01T15:51:26.426Z,26.89
2023-03-01T15:52:26.388Z,26.88
2023-03-01T15:53:26.398Z,26.90
2023-03-01T15:54:26.448Z,26.92
2023-03-01T15:55:26.463Z,26.89
2023-03-01T15:56:26.447Z,26.89
2023-03-01T15:57:26.471Z,26.89
2023-03-01T15:58:26.483Z,26.90
2023-03-01T15:59:26.448Z,26.88
2023-03-01T16:00:26.503Z,26.86
2023-03-01T16:01:26.511Z,26.86
2023-03-01T16:02:26.897Z,26.85
2023-03-01T16:03:26.521Z,26.85
2023-03-01T16:09:26.563Z,26.82
2023-03-01T16:10:26.578Z,26.82
2023-03-01T16:11:26.636Z,26.81
2023-03-01T16:13:28.394Z,26.78
2023-03-01T16:16:26.909Z,26.79
2023-03-01T16:17:26.879Z,26.78
2023-03-01T16:18:26.866Z,26.77
2023-03-01T16:19:26.889Z,26.75
2023-03-01T16:20:29.168Z,26.72
2023-03-01T16:21:26.890Z,26.75
2023-03-01T16:22:26.902Z,26.74
2023-03-01T16:23:26.891Z,26.72
2023-03-01T16:24:26.886Z,26.71
2023-03-01T16:25:26.919Z,26.74
2023-03-01T16:26:26.884Z,26.71
2023-03-01T16:27:26.885Z,26.69
2023-03-01T16:28:28.673Z,26.71
2023-03-01T16:29:26.847Z,26.69
2023-03-01T16:30:26.871Z,26.71
2023-03-01T16:31:26.959Z,26.68
2023-03-01T16:32:26.978Z,26.67
2023-03-01T16:33:32.314Z,26.67
2023-03-01T16:35:26.997Z,26.65
2023-03-01T16:36:26.873Z,26.65
2023-03-01T16:37:26.897Z,26.63
2023-03-01T16:38:26.899Z,26.61
2023-03-01T16:39:26.860Z,26.61
2023-03-01T16:40:26.909Z,26.59
2023-03-01T16:41:26.849Z,26.61
2023-03-01T16:42:26.869Z,26.61
2023-03-01T16:43:26.859Z,26.61
2023-03-01T16:44:26.839Z,26.59
2023-03-01T16:45:26.851Z,26.58
2023-03-01T16:46:26.848Z,26.59
2023-03-01T16:47:26.859Z,26.56
2023-03-01T16:48:26.889Z,26.59
2023-03-01T16:49:26.836Z,26.58
2023-03-01T16:50:26.841Z,26.58
2023-03-01T16:51:26.840Z,26.56
2023-03-01T16:52:26.812Z,26.54
2023-03-01T16:53:26.820Z,26.56
2023-03-01T16:54:26.863Z,26.54
2023-03-01T16:55:26.878Z,26.54
2023-03-01T16:56:26.910Z,26.54
2023-03-01T16:57:26.965Z,26.52
2023-03-01T16:58:26.962Z,26.52
2023-03-01T16:59:27.006Z,26.52
2023-03-01T17:00:27.056Z,26.51
2023-03-01T17:01:27.210Z,26.49
2023-03-01T17:02:27.136Z,26.52
2023-03-01T17:03:27.235Z,26.51
2023-03-01T17:04:27.138Z,26.49
2023-03-01T17:05:27.204Z,26.51
2023-03-01T17:06:27.187Z,26.49
2023-03-01T17:07:27.261Z,26.47
2023-03-01T17:08:27.267Z,26.48
2023-03-01T17:09:27.278Z,26.48
2023-03-01T17:10:27.342Z,26.47
2023-03-01T17:11:27.365Z,26.47
2023-03-01T17:12:27.403Z,26.48
2023-03-01T17:13:27.446Z,26.48
2023-03-01T17:14:27.520Z,26.47
2023-03-01T17:15:27.476Z,26.45
2023-03-01T17:16:27.649Z,26.47
2023-03-01T17:17:27.586Z,26.44
2023-03-01T17:18:27.655Z,26.44
2023-03-01T17:19:27.659Z,26.42
2023-03-01T17:20:27.710Z,26.47
2023-03-01T17:21:27.723Z,26.42
2023-03-01T17:22:27.776Z,26.41
2023-03-01T17:23:27.837Z,26.44
2023-03-01T17:24:27.856Z,26.44
2023-03-01T17:25:27.909Z,26.42
2023-03-01T17:26:27.906Z,26.41
2023-03-01T17:27:27.944Z,26.39
2023-03-01T17:28:28.028Z,26.38
2023-03-01T17:29:28.038Z,26.39
2023-03-01T17:30:28.093Z,26.39
2023-03-01T17:31:28.184Z,26.37
2023-03-01T17:32:28.332Z,26.38
2023-03-01T17:33:28.202Z,26.35
2023-03-01T17:34:28.227Z,26.38
2023-03-01T17:35:28.320Z,26.34
2023-03-01T17:36:28.319Z,26.35
2023-03-01T17:37:28.380Z,26.34
2023-03-01T17:38:28.400Z,26.32
2023-03-01T17:39:29.718Z,26.34
2023-03-01T17:40:28.455Z,26.34
2023-03-01T17:41:28.461Z,26.34
2023-03-01T17:42:28.455Z,26.34
2023-03-01T17:43:28.465Z,26.31
2023-03-01T17:44:28.446Z,26.32
2023-03-01T17:45:28.479Z,26.31
2023-03-01T17:46:28.458Z,26.32
2023-03-01T17:47:28.462Z,26.32
2023-03-01T17:48:28.437Z,26.34
2023-03-01T17:49:28.477Z,26.30
2023-03-01T17:50:28.476Z,26.30
2023-03-01T17:51:28.490Z,26.28
2023-03-01T17:52:28.509Z,26.28
2023-03-01T17:53:28.498Z,26.30
2023-03-01T17:54:28.519Z,26.28
2023-03-01T17:55:28.513Z,26.30
2023-03-01T17:56:28.532Z,26.28
2023-03-01T17:57:28.532Z,26.26
2023-03-01T17:58:28.542Z,26.31
2023-03-01T17:59:28.512Z,26.30
2023-03-01T18:00:28.531Z,26.28
2023-03-01T18:01:28.584Z,26.31
2023-03-01T18:02:28.619Z,26.31
2023-03-01T18:03:28.542Z,26.31
2023-03-01T18:04:28.513Z,26.28
2023-03-01T18:05:28.538Z,26.30
2023-03-01T18:06:28.541Z,26.28
2023-03-01T18:07:28.502Z,26.30
2023-03-01T18:08:28.517Z,26.28
2023-03-01T18:09:28.497Z,26.30
2023-03-01T18:10:28.516Z,26.28
2023-03-01T18:11:28.670Z,26.27
2023-03-01T18:12:29.949Z,26.26
2023-03-01T18:13:28.502Z,26.26
2023-03-01T18:14:28.583Z,26.26
2023-03-01T18:15:28.584Z,26.23
2023-03-01T18:16:29.008Z,26.27
2023-03-01T18:17:28.705Z,26.26
2023-03-01T18:18:28.779Z,26.26
2023-03-01T18:19:29.368Z,26.27
2023-03-01T18:20:28.844Z,26.27
2023-03-01T18:21:28.934Z,26.26
2023-03-01T18:22:28.910Z,26.27
2023-03-01T18:23:28.965Z,26.28
2023-03-01T18:24:29.022Z,26.26
2023-03-01T18:25:29.060Z,26.27
2023-03-01T18:26:29.537Z,26.30
2023-03-01T18:27:29.189Z,26.26
2023-03-01T18:28:29.215Z,26.28
2023-03-01T18:29:29.297Z,26.26
2023-03-01T18:30:29.313Z,26.28
2023-03-01T18:31:29.345Z,26.28
2023-03-01T18:32:29.524Z,26.30
2023-03-01T18:33:29.460Z,26.24
2023-03-01T18:34:29.516Z,26.26
2023-03-01T18:35:29.589Z,26.24
2023-03-01T18:36:29.821Z,26.23
2023-03-01T18:37:29.650Z,26.24
2023-03-01T18:38:29.733Z,26.24
2023-03-01T18:39:29.768Z,26.27
2023-03-01T18:40:29.852Z,26.26
2023-03-01T18:41:30.137Z,26.23
2023-03-01T18:42:29.891Z,26.24
2023-03-01T18:43:29.949Z,26.26
2023-03-01T18:44:30.020Z,26.24
2023-03-01T18:45:30.032Z,26.24
2023-03-01T18:46:30.608Z,26.23
2023-03-01T18:47:30.139Z,26.23
2023-03-01T18:48:30.815Z,26.24
2023-03-01T18:49:30.256Z,26.26
2023-03-01T18:50:30.278Z,26.24
2023-03-01T18:51:30.886Z,26.23
2023-03-01T18:52:30.392Z,26.24
2023-03-01T18:53:30.450Z,26.23
2023-03-01T18:54:30.508Z,26.24
2023-03-01T18:55:30.559Z,26.24
2023-03-01T18:56:30.957Z,26.20
2023-03-01T18:57:30.646Z,26.23
2023-03-01T18:58:30.747Z,26.21
2023-03-01T18:59:30.764Z,26.23
2023-03-01T19:00:30.824Z,26.23
2023-03-01T19:01:31.318Z,26.21
2023-03-01T19:02:30.998Z,26.18
2023-03-01T19:03:31.030Z,26.24
2023-03-01T19:04:31.902Z,26.20
2023-03-01T19:05:31.072Z,26.24
2023-03-01T19:06:31.455Z,26.21
2023-03-01T19:07:31.194Z,26.20
2023-03-01T19:08:31.269Z,26.23
2023-03-01T19:09:31.308Z,26.23
2023-03-01T19:10:31.360Z,26.24
2023-03-01T19:11:31.707Z,26.23
2023-03-01T19:12:32.858Z,26.24
2023-03-01T19:13:31.560Z,26.24
2023-03-01T19:14:31.582Z,26.24
2023-03-01T19:15:31.666Z,26.21
2023-03-01T19:16:32.110Z,26.21
2023-03-01T19:17:31.743Z,26.23
2023-03-01T19:18:31.817Z,26.24
2023-03-01T19:19:31.854Z,26.26
2023-03-01T19:20:31.933Z,26.24
2023-03-01T19:21:32.468Z,26.24
2023-03-01T19:22:32.002Z,26.24
2023-03-01T19:23:32.079Z,26.24
2023-03-01T19:24:32.134Z,26.23
2023-03-01T19:25:32.205Z,26.23
2023-03-01T19:26:32.605Z,26.24
2023-03-01T19:27:32.287Z,26.26
2023-03-01T19:28:32.358Z,26.21
2023-03-01T19:29:32.405Z,26.23
2023-03-01T19:30:32.488Z,26.20
2023-03-01T19:31:32.620Z,26.21
2023-03-01T19:32:32.685Z,26.23
2023-03-01T19:33:32.634Z,26.24
2023-03-01T19:34:32.677Z,26.24
2023-03-01T19:35:32.742Z,26.21
2023-03-01T19:36:33.032Z,26.23
2023-03-01T20:11:34.704Z,26.21
2023-03-01T20:39:36.277Z,26.21
2023-03-01T20:40:36.329Z,26.20
2023-03-01T20:41:36.413Z,26.21
2023-03-01T20:42:36.461Z,26.21
2023-03-01T20:43:36.538Z,26.23
2023-03-01T20:44:36.588Z,26.21
2023-03-01T20:45:36.630Z,26.23
2023-03-01T20:46:36.862Z,26.23
2023-03-01T20:47:36.731Z,26.23
2023-03-01T20:48:36.798Z,26.23
2023-03-01T20:49:36.834Z,26.21
2023-03-01T20:50:36.890Z,26.23
2023-03-01T20:51:36.978Z,26.24
2023-03-01T20:52:47.108Z,26.23
2023-03-01T20:53:37.986Z,26.23
2023-03-01T20:54:37.056Z,26.21
2023-03-01T20:55:37.058Z,26.20
2023-03-01T20:56:37.057Z,26.23
2023-03-01T20:57:37.049Z,26.26
2023-03-01T20:58:37.027Z,26.20
2023-03-01T20:59:37.034Z,26.21
2023-03-01T21:00:37.060Z,26.21
2023-03-01T21:01:37.048Z,26.23
2023-03-01T21:02:37.063Z,26.23
2023-03-01T21:03:37.098Z,26.23
2023-03-01T21:04:37.079Z,26.24
2023-03-01T21:05:37.147Z,26.20
2023-03-01T21:06:37.215Z,26.24
2023-03-01T21:07:37.256Z,26.26
2023-03-01T21:08:37.301Z,26.23
2023-03-01T21:09:37.362Z,26.20
2023-03-01T21:10:37.432Z,26.23
2023-03-01T21:11:37.468Z,26.18
2023-03-01T21:12:37.540Z,26.21
2023-03-01T21:13:37.609Z,26.20
2023-03-01T21:14:37.678Z,26.21
2023-03-01T21:15:37.716Z,26.23
2023-03-01T21:16:37.844Z,26.23
2023-03-01T21:17:37.857Z,26.21
2023-03-01T21:18:37.891Z,26.24
2023-03-01T21:19:37.944Z,26.20
2023-03-01T21:20:38.017Z,26.23
2023-03-01T21:21:38.079Z,26.24
2023-03-01T21:22:38.148Z,26.24
2023-03-01T21:23:38.177Z,26.24
2023-03-01T21:24:38.230Z,26.23
2023-03-01T21:25:38.312Z,26.24
2023-03-01T21:26:38.352Z,26.23
2023-03-01T21:27:38.428Z,26.23
2023-03-01T21:28:38.486Z,26.23
2023-03-01T21:29:38.537Z,26.24
2023-03-01T21:30:38.565Z,26.23
2023-03-01T21:31:38.671Z,26.20
2023-03-01T21:32:38.740Z,26.21
2023-03-01T21:33:38.755Z,26.21
2023-03-01T21:34:38.827Z,26.23
2023-03-01T21:35:38.907Z,26.26
2023-03-01T21:36:38.940Z,26.24
2023-03-01T21:37:38.937Z,26.24
2023-03-01T21:38:39.030Z,26.21
2023-03-01T21:39:39.083Z,26.21
2023-03-01T21:40:39.125Z,26.23
2023-03-01T21:41:39.208Z,26.23
2023-03-01T21:42:39.257Z,26.21
2023-03-01T21:43:39.296Z,26.23
2023-03-01T21:44:39.408Z,26.21
2023-03-01T21:45:39.419Z,26.21
2023-03-01T21:46:39.587Z,26.21
2023-03-01T21:47:39.526Z,26.20
2023-03-01T21:48:40.075Z,26.21
2023-03-01T21:49:39.660Z,26.18
2023-03-01T21:50:39.691Z,26.18
2023-03-01T21:51:39.709Z,26.21
2023-03-01T21:52:39.787Z,26.20
2023-03-01T21:53:39.849Z,26.20
2023-03-01T21:54:39.892Z,26.20
2023-03-01T21:55:39.915Z,26.21
2023-03-01T21:56:40.088Z,26.20
2023-03-01T21:57:40.045Z,26.18
2023-03-01T21:58:40.082Z,26.20
2023-03-01T21:59:40.148Z,26.18
2023-03-01T22:00:40.249Z,26.20
2023-03-01T22:01:40.283Z,26.20
2023-03-01T22:02:40.325Z,26.20
2023-03-01T22:03:40.365Z,26.21
2023-03-01T22:04:40.422Z,26.20
2023-03-01T22:05:40.515Z,26.20
2023-03-01T22:06:40.971Z,26.21
2023-03-01T22:07:40.623Z,26.21
2023-03-01T22:08:40.680Z,26.21
2023-03-01T22:09:40.757Z,26.21
2023-03-01T22:10:40.792Z,26.18
2023-03-01T22:11:40.884Z,26.21
2023-03-01T22:12:40.942Z,26.20
2023-03-01T22:13:41.022Z,26.21
2023-03-01T22:14:41.079Z,26.21
2023-03-01T22:15:41.118Z,26.20
2023-03-01T22:16:41.161Z,26.23
2023-03-01T22:17:41.205Z,26.21
2023-03-01T22:22:41.518Z,26.23
2023-03-01T22:23:41.570Z,26.21
2023-03-01T22:24:41.647Z,26.20
2023-03-01T22:25:41.702Z,26.21
2023-03-01T22:26:41.763Z,26.23